• Join FlightAware (Why Join?)
  • Login
  • US Flag 
03:41PM EST


 

Airport Tracker/Info


-or-


 

Live Flight TrackerFlight Track Log ✈ AWE3794 ✈ 29-Apr-2013 ✈ KPHL - KCLE

Flight Track Log - Related Links

Times and Time Zones

All times are in EDT time to prevent confusion due to time zone crossing. See the AWE3794 flight status page for this flight to view local times or setup timezone preferences in your user account.

Time Position Orientation Groundspeed Altitude Reporting Facility
EDT Latitude Longitude Course Direction KTS MPH feet Rate Location/Type
08:03AM 39.8833 -75.2167 North 154 177 900  Level Philadelphia TRACON
08:04AM 39.9000 -75.1667 67° East 202 232 2,600 2,280 Climbing Philadelphia TRACON
08:05AM 39.9500 -75.1333 27° Northeast 232 267 5,300 2,760 Climbing Philadelphia TRACON
08:06AM 39.9833 -75.1833 311° West 225 259 8,000 2,340 Climbing Philadelphia TRACON
08:07AM 40.1336 -75.4835 323° Northwest  Level FlightAware Approximate
08:07AM 40.0333 -75.2500 314° West 281 323 9,800  Level Philadelphia TRACON
08:08AM 40.2018 -75.5500 North  Level FlightAware Approximate
08:09AM 40.1264 -75.4103 307° West 376 433 11,300  Level New York Center
08:10AM 40.1969 -75.5236 309° West 367 422 13,100 1,920 Climbing New York Center
08:11AM 40.2619 -75.6206 311° West 367 422 15,200 1,980 Climbing New York Center
08:12AM 40.3306 -75.7208 312° West 367 422 17,100 1,500 Climbing New York Center
08:13AM 40.3892 -75.8150 309° West 367 422 18,300 1,260 Climbing New York Center
08:14AM 40.4450 -75.9225 304° West 368 423 19,700 1,380 Climbing New York Center
08:15AM 40.4661 -76.0553 282° West 360 414 21,100 1,140 Climbing New York Center
08:16AM 40.4869 -76.1933 281° West 373 429 22,000 900 Climbing New York Center
08:17AM 40.5097 -76.3317 282° West 383 441 23,000 960 Climbing New York Center
08:18AM 40.5303 -76.4697 281° West 388 447 23,900 1,020 Climbing New York Center
08:19AM 40.5567 -76.6139 284° West 399 459 25,100 900 Climbing New York Center
08:20AM 40.5914 -76.7536 288° West 399 459 25,800 420 Climbing New York Center
08:21AM 40.6300 -76.8939 290° West 410 472 26,000 60 Climbing New York Center
08:22AM 40.6683 -77.0394 289° West 420 483 26,000  Level New York Center
08:23AM 40.7081 -77.1911 289° West 430 495 26,000  Level New York Center
08:24AM 40.7425 -77.3614 285° West 441 507 26,000  Level New York Center
08:26AM 40.8136 -77.7436 284° West 450 518 26,000  Level Cleveland Center
08:27AM 40.8447 -77.9042 284° West 450 518 26,000  Level Cleveland Center
08:28AM 40.8753 -78.0650 284° West 450 518 26,000  Level Cleveland Center
08:29AM 40.9036 -78.2206 284° West 450 518 26,000  Level Cleveland Center
08:30AM 40.9361 -78.3842 285° West 450 518 26,000  Level Cleveland Center
08:31AM 40.9664 -78.5456 284° West 450 518 26,000  Level Cleveland Center
08:32AM 40.9961 -78.7042 284° West 450 518 26,000  Level Cleveland Center
08:33AM 41.0236 -78.8631 283° West 450 518 26,000  Level Cleveland Center
08:34AM 41.0531 -79.0247 284° West 450 518 26,000  Level Cleveland Center
08:35AM 41.0800 -79.1867 282° West 450 518 26,000  Level Cleveland Center
08:36AM 41.1092 -79.3514 283° West 450 518 26,000 -300 Level Cleveland Center
08:37AM 41.1378 -79.5133 283° West 450 518 25,500 -1,020 Descending Cleveland Center
08:38AM 41.1664 -79.6950 282° West 450 518 24,000 -780 Descending Cleveland Center
08:39AM 41.1947 -79.8547 283° West 450 518 24,000  Level Cleveland Center
08:40AM 41.2142 -79.9814 282° West 450 518 24,000  Level Cleveland Center
08:41AM 41.2464 -80.1578 284° West 450 518 24,000 -60 Level Cleveland Center
08:42AM 41.2739 -80.3178 283° West 450 518 23,900 -1,440 Descending Cleveland Center
08:43AM 41.3033 -80.4975 282° West 450 518 21,200 -2,640 Descending Cleveland Center
08:44AM 41.3261 -80.6467 282° West 433 498 18,700 -2,580 Descending Cleveland Center
08:45AM 41.3719 -80.7878 293° West 415 478 16,100 -2,580 Descending Cleveland Center
08:46AM 41.4217 -80.9153 298° West 400 460 13,600 -2,580 Descending Cleveland Center
08:47AM 41.4444 -80.9736 298° West 375 432 12,400 -2,520 Descending Cleveland Center
08:47AM 41.4692 -81.0403 296° West 382 440 11,100 -2,400 Descending Cleveland Center
08:48AM 41.4856 -81.0847 296° West 368 423 10,200 -1,140 Descending Cleveland Center
08:48AM 41.5125 -81.1600 296° West 370 426 10,000 -240 Descending Cleveland Center
08:49AM 41.5183 -81.2128 278° West 369 425 10,000  Level Cleveland Center
08:49AM 41.5200 -81.2931 272° West 358 412 10,000  Level Cleveland Center
08:50AM 41.5197 -81.3458 270° West 360 414 10,000 -120 Level Cleveland Center
08:50AM 41.5211 -81.4206 271° West 358 412 9,900 -720 Descending Cleveland Center
08:51AM 41.5189 -81.4594 266° West 276 318 9,300 -2,220 Descending Cleveland Center
08:51AM 41.5206 -81.5206 272° West 302 348 7,700 -2,760 Descending Cleveland Center
08:52AM 41.5222 -81.5678 273° West 260 299 6,500 -2,520 Descending Cleveland Center
08:52AM 41.5197 -81.6147 266° West 261 300 5,200 -2,400 Descending Cleveland Center
08:53AM 41.5192 -81.6592 269° West 253 291 4,100 -1,500 Descending Cleveland Center
08:53AM 41.5083 -81.7006 251° West 241 277 3,700 -900 Descending Cleveland Center
08:54AM 41.4936 -81.7281 234° Southwest 189 217 3,200 -1,200 Descending Cleveland Center